Time;durP1;ratioP1;P1;durP2;ratioP2;P2;SDS_P1;SDS_P2;PMS_P1;PMS_P2;Temp;Humidity;BMP_temperature;BMP_pressure;BME280_temperature;BME280_humidity;BME280_pressure;Samples;Min_cycle;Max_cycle;Signal;HPM_P1;HPM_P2
2021/01/19 00:00:33;;;;;;;10.38;5.20;;;26.40;12.30;;;;;;5108399;28;20076;-72
2021/01/19 00:03:00;;;;;;;9.57;4.93;;;26.30;12.90;;;;;;5107290;28;20026;-74
2021/01/19 00:05:26;;;;;;;5.82;2.03;;;26.50;12.40;;;;;;5103326;28;20031;-71
2021/01/19 00:07:53;;;;;;;8.30;1.00;;;26.50;12.30;;;;;;5105785;28;20081;-72
2021/01/19 00:10:20;;;;;;;3.35;1.00;;;26.40;13.50;;;;;;5089312;28;20514;-72
2021/01/19 00:12:47;;;;;;;37.65;4.53;;;26.40;14.10;;;;;;5090965;28;20039;-72
2021/01/19 00:15:13;;;;;;;11.40;1.65;;;26.40;13.60;;;;;;5105442;28;20027;-74
2021/01/19 00:17:41;;;;;;;4.75;1.15;;;26.30;12.60;;;;;;5109699;28;20042;-73
2021/01/19 00:20:09;;;;;;;5.18;1.50;;;26.40;12.60;;;;;;5090126;28;20025;-73
2021/01/19 00:22:36;;;;;;;7.15;1.30;;;26.40;13.80;;;;;;5103693;28;20114;-72
2021/01/19 00:25:04;;;;;;;6.68;1.50;;;26.30;13.20;;;;;;5105472;28;20024;-74
2021/01/19 00:27:30;;;;;;;12.20;1.83;;;26.10;13.60;;;;;;5088474;28;20479;-72
2021/01/19 00:29:57;;;;;;;11.18;1.45;;;26.00;13.50;;;;;;5104896;28;20385;-73
2021/01/19 00:32:23;;;;;;;15.77;1.98;;;25.90;13.90;;;;;;5105804;28;20040;-74
2021/01/19 00:34:50;;;;;;;9.25;1.90;;;25.80;14.70;;;;;;5108204;28;20540;-74
2021/01/19 00:37:16;;;;;;;14.65;2.33;;;25.70;14.20;;;;;;5107689;28;20111;-74
2021/01/19 00:39:43;;;;;;;25.25;2.70;;;25.60;14.90;;;;;;5089549;28;20024;-71
2021/01/19 00:42:09;;;;;;;12.75;2.40;;;25.50;15.20;;;;;;5106015;28;20031;-72
2021/01/19 00:44:36;;;;;;;20.33;2.80;;;25.40;15.20;;;;;;5107300;28;20016;-75
2021/01/19 00:47:04;;;;;;;8.48;2.70;;;25.40;15.80;;;;;;5107929;28;20032;-74
2021/01/19 00:49:30;;;;;;;15.55;2.67;;;25.30;15.70;;;;;;5085250;28;20464;-75
2021/01/19 00:51:57;;;;;;;11.60;2.72;;;25.10;16.80;;;;;;5108224;28;20024;-75
2021/01/19 00:54:23;;;;;;;17.92;3.15;;;25.10;16.10;;;;;;5089086;28;20114;-74
2021/01/19 00:56:51;;;;;;;19.08;3.08;;;24.90;16.40;;;;;;5106518;28;20021;-75
2021/01/19 00:59:18;;;;;;;23.52;3.45;;;24.80;17.00;;;;;;5106880;28;20030;-74
2021/01/19 01:01:46;;;;;;;19.88;3.30;;;24.70;17.50;;;;;;5109124;28;20078;-75
2021/01/19 01:04:13;;;;;;;20.25;3.55;;;24.50;18.00;;;;;;5111370;28;20020;-74
2021/01/19 01:06:40;;;;;;;25.10;3.75;;;24.40;18.50;;;;;;5110054;28;20023;-75
2021/01/19 01:09:07;;;;;;;13.27;3.10;;;24.30;18.20;;;;;;5093563;28;20081;-76
2021/01/19 01:11:42;;;;;;;20.65;3.17;;;24.20;19.50;;;;;;5110132;28;20020;-75
2021/01/19 01:14:09;;;;;;;27.27;3.40;;;24.00;19.40;;;;;;5111381;28;20077;-76
2021/01/19 01:16:37;;;;;;;30.33;3.95;;;23.90;19.30;;;;;;5109666;28;20102;-75
2021/01/19 01:19:08;;;;;;;20.67;3.58;;;23.70;23.00;;;;;;5086894;28;20027;-74
2021/01/19 01:21:39;;;;;;;32.92;3.50;;;23.60;20.00;;;;;;5105834;28;20096;-72
2021/01/19 01:24:09;;;;;;;19.17;3.58;;;23.50;20.30;;;;;;5111886;28;20027;-73
2021/01/19 01:26:36;;;;;;;17.77;3.35;;;23.30;20.40;;;;;;5113526;28;20011;-71
2021/01/19 01:29:04;;;;;;;34.22;3.33;;;23.20;20.80;;;;;;5109906;28;20032;-73
2021/01/19 01:31:30;;;;;;;43.85;3.95;;;23.00;20.70;;;;;;5089243;28;20104;-72
2021/01/19 01:33:57;;;;;;;58.30;5.57;;;22.90;21.10;;;;;;5093890;28;20035;-72
2021/01/19 01:36:24;;;;;;;60.65;5.47;;;22.70;21.60;;;;;;5113214;28;20107;-72
2021/01/19 01:38:50;;;;;;;61.72;5.10;;;22.50;21.40;;;;;;5089414;28;20106;-71
2021/01/19 01:41:19;;;;;;;52.47;4.93;;;22.50;29.80;;;;;;5109911;28;20464;-74
2021/01/19 01:43:47;;;;;;;39.25;5.30;;;22.20;22.50;;;;;;5086818;28;20111;-70
2021/01/19 01:46:18;;;;;;;40.40;4.68;;;22.10;22.60;;;;;;5092071;28;20038;-72
2021/01/19 01:48:47;;;;;;;32.08;4.18;;;22.00;22.50;;;;;;5087401;28;20036;-73
2021/01/19 01:51:14;;;;;;;43.15;4.82;;;21.80;22.70;;;;;;5111681;27;20343;-73
2021/01/19 01:53:42;;;;;;;34.67;4.45;;;21.70;22.80;;;;;;5108496;28;20380;-73
2021/01/19 01:56:10;;;;;;;28.48;4.80;;;21.50;23.20;;;;;;5090135;28;20047;-72
2021/01/19 01:58:43;;;;;;;39.78;4.80;;;21.40;23.10;;;;;;5108169;28;20051;-73
2021/01/19 02:01:10;;;;;;;34.33;5.20;;;21.30;23.00;;;;;;5110999;28;20024;-73
2021/01/19 02:03:37;;;;;;;23.33;4.72;;;21.10;24.00;;;;;;5089101;28;20044;-71
2021/01/19 02:06:06;;;;;;;31.90;4.15;;;21.00;24.10;;;;;;5109800;28;20016;-72
2021/01/19 02:08:42;;;;;;;37.30;5.35;;;20.90;24.00;;;;;;5107038;28;20032;-72
2021/01/19 02:11:23;;;;;;;43.17;5.32;;;20.70;24.30;;;;;;5090226;28;20026;-71
2021/01/19 02:14:09;;;;;;;30.58;4.40;;;20.60;24.60;;;;;;5107988;28;20032;-72
2021/01/19 02:16:56;;;;;;;35.55;5.38;;;20.50;24.60;;;;;;5108701;28;20016;-73
2021/01/19 02:19:41;;;;;;;32.88;4.72;;;20.40;24.90;;;;;;5111602;28;20019;-74
2021/01/19 02:22:16;;;;;;;34.85;5.10;;;20.30;25.20;;;;;;5108821;28;20103;-73
2021/01/19 02:25:04;;;;;;;36.65;5.43;;;20.20;25.20;;;;;;5087939;28;20036;-72
2021/01/19 02:27:52;;;;;;;41.17;5.22;;;20.10;25.20;;;;;;5089467;28;20471;-72
2021/01/19 02:30:43;;;;;;;40.95;6.22;;;19.90;25.90;;;;;;5089935;28;20023;-71
2021/01/19 02:33:30;;;;;;;42.78;7.45;;;19.80;26.10;;;;;;5113310;27;20040;-70
2021/01/19 02:36:42;;;;;;;53.73;11.33;;;19.70;26.40;;;;;;5079046;28;20507;-72
2021/01/19 02:39:16;;;;;;;50.65;11.10;;;19.60;26.70;;;;;;5089678;28;20089;-72
2021/01/19 02:41:45;;;;;;;47.25;12.55;;;19.50;26.70;;;;;;5093089;28;20036;-71
2021/01/19 02:44:23;;;;;;;54.85;12.90;;;19.40;27.10;;;;;;5092604;28;20407;-71
2021/01/19 02:46:56;;;;;;;47.55;12.98;;;19.30;26.40;;;;;;5089757;28;20039;-72
2021/01/19 02:49:23;;;;;;;54.15;13.30;;;19.30;26.50;;;;;;5087522;28;20036;-72
2021/01/19 02:51:52;;;;;;;71.20;17.10;;;19.20;27.50;;;;;;5103820;28;20030;-73
2021/01/19 02:54:21;;;;;;;55.53;16.42;;;19.20;27.60;;;;;;5107797;28;20380;-73
2021/01/19 02:56:53;;;;;;;51.03;15.48;;;19.10;27.50;;;;;;5088121;28;20024;-73
2021/01/19 02:59:32;;;;;;;79.30;16.85;;;19.00;27.80;;;;;;5108869;28;20518;-72
2021/01/19 03:02:09;;;;;;;53.50;14.93;;;19.00;27.70;;;;;;5109315;28;20024;-71
2021/01/19 03:04:36;;;;;;;;;;;18.90;28.30;;;;;;5111346;28;20384;-72
2021/01/19 03:07:05;;;;;;;49.60;16.93;;;18.80;28.70;;;;;;5079568;28;19919;-71
2021/01/19 03:09:38;;;;;;;56.28;16.23;;;18.70;28.50;;;;;;5109982;27;20053;-71
2021/01/19 03:12:09;;;;;;;79.85;17.38;;;18.60;28.40;;;;;;5109974;28;20022;-72
2021/01/19 03:14:40;;;;;;;55.92;16.10;;;18.50;28.80;;;;;;5108272;28;20023;-73
2021/01/19 03:17:07;;;;;;;68.72;16.50;;;18.50;29.10;;;;;;5086516;28;20028;-73
2021/01/19 03:19:37;;;;;;;68.53;18.17;;;18.50;29.10;;;;;;5088496;28;20047;-74
2021/01/19 03:22:04;;;;;;;71.40;18.38;;;18.50;29.20;;;;;;5084473;28;20024;-73
2021/01/19 03:24:31;;;;;;;82.45;20.60;;;18.40;29.50;;;;;;5102932;28;20041;-75
2021/01/19 03:26:58;;;;;;;105.18;26.17;;;18.30;29.30;;;;;;5110482;28;20099;-73
2021/01/19 03:29:24;;;;;;;113.85;23.80;;;18.30;29.20;;;;;;5086529;28;20031;-73
2021/01/19 03:31:51;;;;;;;93.10;21.23;;;18.10;28.70;;;;;;5089973;28;20051;-73
2021/01/19 03:34:18;;;;;;;118.45;22.13;;;18.10;28.60;;;;;;5088174;28;20116;-71
2021/01/19 03:36:45;;;;;;;94.93;22.55;;;18.10;29.00;;;;;;5086053;28;20031;-71
2021/01/19 03:39:12;;;;;;;104.38;23.25;;;18.10;29.50;;;;;;5087262;28;20027;-70
2021/01/19 03:41:39;;;;;;;103.47;22.92;;;18.00;29.50;;;;;;5108467;28;20027;-72
2021/01/19 03:44:06;;;;;;;100.07;23.13;;;18.00;29.80;;;;;;5107087;28;20020;-69
2021/01/19 03:46:33;;;;;;;91.32;21.83;;;17.90;29.60;;;;;;5107041;28;20429;-69
2021/01/19 03:48:59;;;;;;;;;;;17.90;29.80;;;;;;5099446;28;20024;-69
2021/01/19 03:51:26;;;;;;;106.93;24.90;;;17.80;29.40;;;;;;5101107;28;20287;-69
2021/01/19 03:53:53;;;;;;;114.57;28.70;;;17.80;29.50;;;;;;5104309;28;20038;-69
2021/01/19 03:56:21;;;;;;;122.32;30.55;;;17.70;29.80;;;;;;5086112;28;20028;-72
2021/01/19 03:58:47;;;;;;;89.95;30.58;;;17.70;30.00;;;;;;5106580;28;20055;-73
2021/01/19 04:01:15;;;;;;;119.13;33.67;;;17.70;30.00;;;;;;5086681;28;20375;-71
2021/01/19 04:03:41;;;;;;;121.93;34.60;;;17.70;29.60;;;;;;5105987;28;20023;-72
2021/01/19 04:06:10;;;;;;;138.88;34.70;;;17.70;30.00;;;;;;5106093;28;20115;-71
2021/01/19 04:08:38;;;;;;;121.13;34.65;;;17.70;30.50;;;;;;5099168;28;20074;-72
2021/01/19 04:11:06;;;;;;;129.80;34.75;;;17.70;30.20;;;;;;5106154;28;20030;-71
2021/01/19 04:13:33;;;;;;;117.20;34.42;;;17.60;30.00;;;;;;5105790;28;20051;-70
2021/01/19 04:15:59;;;;;;;140.85;37.40;;;17.70;30.70;;;;;;5106477;28;20016;-71
2021/01/19 04:18:26;;;;;;;135.85;38.15;;;17.70;29.90;;;;;;5107945;28;20031;-73
2021/01/19 04:20:54;;;;;;;132.48;40.47;;;17.70;30.50;;;;;;5105303;28;20428;-72
2021/01/19 04:23:20;;;;;;;151.40;41.30;;;17.70;30.50;;;;;;5108010;28;20070;-72
2021/01/19 04:25:47;;;;;;;;;;;17.70;29.80;;;;;;5105775;28;20026;-72
2021/01/19 04:28:14;;;;;;;168.27;44.15;;;17.70;29.60;;;;;;5101107;28;19923;-72
2021/01/19 04:30:42;;;;;;;147.98;43.45;;;17.70;29.70;;;;;;5106615;28;20023;-71
2021/01/19 04:33:09;;;;;;;147.05;41.60;;;17.70;29.70;;;;;;5108062;28;20488;-71
2021/01/19 04:35:36;;;;;;;136.18;43.65;;;17.70;30.40;;;;;;5089630;28;20044;-71
2021/01/19 04:38:02;;;;;;;154.57;43.92;;;17.70;30.30;;;;;;5075852;28;20435;-71
2021/01/19 04:40:29;;;;;;;;;;;17.70;29.90;;;;;;5109346;28;20043;-72
2021/01/19 04:42:55;;;;;;;147.77;46.17;;;17.70;29.90;;;;;;5094079;28;19907;-72
2021/01/19 04:45:22;;;;;;;157.85;48.75;;;17.70;29.80;;;;;;5110343;28;20020;-72
2021/01/19 04:47:49;;;;;;;172.15;45.10;;;17.80;29.80;;;;;;5093856;28;20031;-71
2021/01/19 04:50:16;;;;;;;165.45;42.17;;;17.80;30.30;;;;;;5088538;28;20030;-71
2021/01/19 04:52:47;;;;;;;161.25;41.78;;;17.80;30.40;;;;;;5112502;28;20031;-71
2021/01/19 04:55:22;;;;;;;148.70;39.63;;;17.80;30.80;;;;;;5109275;28;20024;-71
2021/01/19 04:57:58;;;;;;;173.43;39.40;;;17.80;30.30;;;;;;5106240;28;20111;-71
2021/01/19 05:00:31;;;;;;;146.23;38.47;;;17.80;30.20;;;;;;5096787;28;20453;-72
2021/01/19 05:03:24;;;;;;;142.75;38.53;;;17.90;30.70;;;;;;5080448;28;20464;-72
2021/01/19 05:06:16;;;;;;;154.82;38.38;;;17.90;30.50;;;;;;5108267;28;20039;-72
2021/01/19 05:08:58;;;;;;;158.10;34.13;;;17.90;31.40;;;;;;5095535;28;20533;-72
2021/01/19 05:11:28;;;;;;;156.65;34.72;;;17.90;31.50;;;;;;5109766;28;20031;-70
2021/01/19 05:14:00;;;;;;;152.02;32.65;;;17.90;31.00;;;;;;5112920;28;20054;-71
2021/01/19 05:16:37;;;;;;;134.55;32.30;;;17.90;31.10;;;;;;5095548;28;20039;-71
2021/01/19 05:19:07;;;;;;;147.83;35.03;;;17.90;31.90;;;;;;5098985;28;20507;-71
2021/01/19 05:21:38;;;;;;;152.90;31.58;;;17.90;31.50;;;;;;5088736;28;20436;-70
2021/01/19 05:24:07;;;;;;;158.18;33.70;;;18.00;31.20;;;;;;5110357;28;20023;-70
2021/01/19 05:26:35;;;;;;;151.25;33.75;;;17.90;31.30;;;;;;5109597;28;20371;-69
2021/01/19 05:29:04;;;;;;;149.00;33.60;;;18.00;30.50;;;;;;5088309;28;20443;-67
2021/01/19 05:31:32;;;;;;;158.90;34.92;;;17.90;30.50;;;;;;5087589;28;20065;-70
2021/01/19 05:33:58;;;;;;;158.63;35.60;;;18.00;31.10;;;;;;5089423;28;20345;-70
2021/01/19 05:36:31;;;;;;;186.75;37.70;;;18.00;31.40;;;;;;5096676;28;20032;-70
2021/01/19 05:38:58;;;;;;;143.40;35.80;;;18.00;31.60;;;;;;5082608;28;20495;-71
2021/01/19 05:41:28;;;;;;;158.05;36.35;;;18.00;31.10;;;;;;5097018;28;20032;-72
2021/01/19 05:43:55;;;;;;;176.57;46.13;;;17.90;30.70;;;;;;5101597;28;20030;-71
2021/01/19 05:46:29;;;;;;;174.10;44.25;;;17.90;30.60;;;;;;5070006;28;20146;-71
2021/01/19 05:49:00;;;;;;;174.68;43.00;;;17.90;30.60;;;;;;5097586;28;20362;-71
2021/01/19 05:51:32;;;;;;;182.13;41.72;;;17.90;31.30;;;;;;5069256;28;20029;-71
2021/01/19 05:54:00;;;;;;;171.55;40.00;;;17.80;31.00;;;;;;5096338;28;20110;-71
2021/01/19 05:56:28;;;;;;;;;;;17.80;31.10;;;;;;5094333;28;20439;-70
2021/01/19 05:58:54;;;;;;;;;;;17.80;31.20;;;;;;5096131;28;19914;-71
2021/01/19 06:01:32;;;;;;;178.43;40.35;;;17.70;30.80;;;;;;5073462;28;19911;-71
2021/01/19 06:04:03;;;;;;;188.23;39.95;;;17.70;31.30;;;;;;5091649;28;20105;-70
2021/01/19 06:06:30;;;;;;;169.70;40.13;;;17.70;31.30;;;;;;5099498;28;20111;-70
2021/01/19 06:09:05;;;;;;;168.93;41.88;;;17.70;31.80;;;;;;5101182;28;20556;-71
2021/01/19 06:11:32;;;;;;;174.60;40.10;;;17.60;31.90;;;;;;5095961;28;20442;-71
2021/01/19 06:13:59;;;;;;;188.00;41.97;;;17.60;31.50;;;;;;5100216;28;20032;-70
2021/01/19 06:16:25;;;;;;;;;;;17.60;31.50;;;;;;5097226;28;20119;-70
2021/01/19 06:18:55;;;;;;;187.55;38.47;;;17.50;31.80;;;;;;5099709;28;19908;-71
2021/01/19 06:21:34;;;;;;;187.50;39.83;;;17.50;31.90;;;;;;5094536;28;20024;-71
2021/01/19 06:24:01;;;;;;;158.95;39.90;;;17.50;32.00;;;;;;5100666;28;20051;-71
2021/01/19 06:26:28;;;;;;;178.65;40.78;;;17.50;31.70;;;;;;5068324;28;20033;-70
2021/01/19 06:28:56;;;;;;;172.25;39.10;;;17.40;31.80;;;;;;5097552;28;20468;-70
2021/01/19 06:31:30;;;;;;;172.13;39.60;;;17.50;31.40;;;;;;5098751;28;20020;-70
2021/01/19 06:33:56;;;;;;;159.27;39.03;;;17.40;31.20;;;;;;5095905;28;20017;-71
2021/01/19 06:36:22;;;;;;;;;;;17.40;31.40;;;;;;5097551;28;20099;-69
2021/01/19 06:38:50;;;;;;;165.32;37.65;;;17.50;31.90;;;;;;5101136;28;19971;-70
2021/01/19 06:41:18;;;;;;;143.02;38.63;;;17.50;32.00;;;;;;5091985;28;20531;-71
2021/01/19 06:43:59;;;;;;;155.88;37.17;;;17.50;31.50;;;;;;5094554;28;20024;-70
2021/01/19 06:46:28;;;;;;;167.88;41.92;;;17.50;32.70;;;;;;5097315;28;20043;-71
2021/01/19 06:49:01;;;;;;;181.15;39.22;;;17.40;32.00;;;;;;5067122;28;20035;-72
2021/01/19 06:51:29;;;;;;;169.32;38.88;;;17.40;32.00;;;;;;5094104;28;20059;-72
2021/01/19 06:54:05;;;;;;;;;;;17.40;32.30;;;;;;5097794;28;20031;-72
2021/01/19 06:56:37;;;;;;;150.63;37.42;;;17.40;32.80;;;;;;5095691;28;19915;-70
2021/01/19 06:59:23;;;;;;;160.32;39.40;;;17.40;32.70;;;;;;5064912;28;20025;-70
2021/01/19 07:01:57;;;;;;;151.80;39.72;;;17.30;32.60;;;;;;5068665;28;20021;-70
2021/01/19 07:04:24;;;;;;;141.50;36.25;;;17.40;32.70;;;;;;5070926;28;20063;-71
2021/01/19 07:06:56;;;;;;;136.90;37.00;;;17.40;32.70;;;;;;5096945;28;20074;-70
2021/01/19 07:09:41;;;;;;;162.93;39.35;;;17.30;32.30;;;;;;5094225;28;20035;-70
2021/01/19 07:12:10;;;;;;;138.55;38.30;;;17.30;33.20;;;;;;5093299;28;20043;-70
2021/01/19 07:14:43;;;;;;;148.60;36.15;;;17.30;33.60;;;;;;5073962;28;20060;-70
2021/01/19 07:17:18;;;;;;;137.95;38.05;;;17.30;33.50;;;;;;5096997;28;20036;-69
2021/01/19 07:19:45;;;;;;;142.60;37.47;;;17.30;32.90;;;;;;5069338;28;20438;-69
2021/01/19 07:22:36;;;;;;;178.35;37.42;;;17.20;33.10;;;;;;5066607;28;20488;-70
2021/01/19 07:25:03;;;;;;;145.35;35.33;;;17.20;33.50;;;;;;5068337;28;20086;-70
2021/01/19 07:27:32;;;;;;;158.23;37.83;;;17.20;33.70;;;;;;5094143;28;20050;-70
2021/01/19 07:29:58;;;;;;;145.93;36.15;;;17.10;34.20;;;;;;5066840;28;20081;-70
2021/01/19 07:32:28;;;;;;;144.07;37.70;;;17.10;34.30;;;;;;5075796;28;20024;-71
2021/01/19 07:34:58;;;;;;;136.77;35.33;;;17.10;34.60;;;;;;5097454;28;20074;-71
2021/01/19 07:37:35;;;;;;;148.70;37.53;;;17.10;34.40;;;;;;5104787;28;20484;-71
2021/01/19 07:40:20;;;;;;;157.23;38.30;;;17.10;34.10;;;;;;5104672;28;20031;-70
2021/01/19 07:42:47;;;;;;;170.80;37.53;;;17.00;34.50;;;;;;5104248;28;20024;-69
2021/01/19 07:45:14;;;;;;;151.48;36.40;;;17.10;34.70;;;;;;5087098;28;20066;-70
2021/01/19 07:47:45;;;;;;;143.25;35.05;;;17.00;35.20;;;;;;5108580;28;20031;-70
2021/01/19 07:50:13;;;;;;;141.50;36.10;;;17.00;34.90;;;;;;5106185;28;20023;-70
2021/01/19 07:52:43;;;;;;;128.63;33.40;;;16.90;34.80;;;;;;5091485;28;20085;-68
2021/01/19 07:55:16;;;;;;;151.52;35.35;;;17.00;34.60;;;;;;5104906;28;20019;-70
2021/01/19 07:57:47;;;;;;;136.60;36.80;;;16.90;34.40;;;;;;5075164;28;20031;-68
2021/01/19 08:00:23;;;;;;;123.90;34.05;;;16.80;34.80;;;;;;5102044;28;20411;-68
2021/01/19 08:02:49;;;;;;;168.60;36.90;;;16.80;34.70;;;;;;5089405;28;20525;-69
2021/01/19 08:05:28;;;;;;;153.82;36.05;;;16.80;34.90;;;;;;5086327;28;20037;-70
2021/01/19 08:07:56;;;;;;;152.40;36.50;;;16.80;35.00;;;;;;5103423;28;20055;-69
2021/01/19 08:10:25;;;;;;;122.43;31.95;;;16.70;34.70;;;;;;5102160;28;20032;-70
2021/01/19 08:12:58;;;;;;;143.02;33.15;;;16.80;34.90;;;;;;5085104;28;20024;-70
2021/01/19 08:15:31;;;;;;;132.27;30.58;;;16.70;34.60;;;;;;5090845;28;20020;-69
2021/01/19 08:17:59;;;;;;;128.73;30.33;;;16.70;34.60;;;;;;5084411;28;20089;-69
2021/01/19 08:20:37;;;;;;;133.45;31.02;;;16.60;34.60;;;;;;5075332;28;20111;-69
2021/01/19 08:23:10;;;;;;;116.95;30.27;;;16.60;34.70;;;;;;5087183;28;20024;-69
2021/01/19 08:25:38;;;;;;;113.20;26.67;;;16.50;34.90;;;;;;5086483;28;20027;-69
2021/01/19 08:28:05;;;;;;;109.03;25.73;;;16.50;35.40;;;;;;5089354;28;20042;-71
2021/01/19 08:30:32;;;;;;;107.60;27.00;;;16.40;35.20;;;;;;5106166;28;20022;-70
2021/01/19 08:33:00;;;;;;;101.53;25.67;;;16.40;35.20;;;;;;5100499;28;20020;-70
2021/01/19 08:35:30;;;;;;;109.95;24.27;;;16.40;35.10;;;;;;5103834;28;20040;-69
2021/01/19 08:38:02;;;;;;;86.72;20.42;;;16.30;35.50;;;;;;5100818;28;20034;-69
2021/01/19 08:40:32;;;;;;;87.63;21.92;;;16.30;36.10;;;;;;5101325;28;20023;-70
2021/01/19 08:42:59;;;;;;;81.60;19.33;;;16.30;36.60;;;;;;5084057;28;20027;-69
2021/01/19 08:45:31;;;;;;;93.50;20.20;;;16.30;37.20;;;;;;5088024;28;20020;-70
2021/01/19 08:48:02;;;;;;;85.57;18.25;;;16.30;37.30;;;;;;5105499;28;20036;-69
2021/01/19 08:50:33;;;;;;;79.60;18.23;;;16.10;37.50;;;;;;5089807;28;20020;-69
2021/01/19 08:53:07;;;;;;;81.78;18.30;;;16.10;37.70;;;;;;5086621;28;20027;-69
2021/01/19 08:55:34;;;;;;;95.10;19.15;;;16.10;38.20;;;;;;5088288;28;20061;-70
2021/01/19 08:58:01;;;;;;;84.60;19.77;;;16.00;38.40;;;;;;5105340;28;20028;-70
2021/01/19 09:00:38;;;;;;;77.47;18.40;;;16.10;38.70;;;;;;5088393;28;20439;-68
2021/01/19 09:03:18;;;;;;;70.35;17.30;;;16.00;39.00;;;;;;5106485;28;20055;-69
2021/01/19 09:05:44;;;;;;;82.70;18.35;;;15.90;38.80;;;;;;5086185;28;20019;-69
2021/01/19 09:08:12;;;;;;;;;;;15.80;39.20;;;;;;5101977;28;20031;-70
2021/01/19 09:10:38;;;;;;;79.45;18.52;;;15.80;39.40;;;;;;5104243;28;19912;-70
2021/01/19 09:13:06;;;;;;;79.25;17.70;;;15.70;39.70;;;;;;5102096;28;20046;-70
2021/01/19 09:15:39;;;;;;;73.40;16.17;;;15.60;39.60;;;;;;5102115;28;20111;-69
2021/01/19 09:18:09;;;;;;;78.50;16.30;;;15.60;40.10;;;;;;5082776;28;20028;-69
2021/01/19 09:20:36;;;;;;;63.78;15.50;;;15.60;40.40;;;;;;5102285;28;20024;-69
2021/01/19 09:23:18;;;;;;;;;;;15.60;40.70;;;;;;5102906;28;20020;-70
2021/01/19 09:25:45;;;;;;;71.57;14.77;;;15.60;40.60;;;;;;5103958;28;19915;-70
2021/01/19 09:28:14;;;;;;;58.05;12.98;;;15.50;40.80;;;;;;5083924;28;20032;-69
2021/01/19 09:30:42;;;;;;;67.05;14.13;;;15.50;41.00;;;;;;5106557;28;20107;-70
2021/01/19 09:33:12;;;;;;;50.45;12.02;;;15.50;41.20;;;;;;5106190;28;20118;-70
2021/01/19 09:35:40;;;;;;;48.75;11.88;;;15.50;41.30;;;;;;5077607;28;20036;-70
2021/01/19 09:38:21;;;;;;;51.60;12.27;;;15.40;41.60;;;;;;5069617;28;20636;-70
2021/01/19 09:40:51;;;;;;;43.63;11.60;;;15.30;41.60;;;;;;5088946;28;20062;-69
2021/01/19 09:43:18;;;;;;;55.30;11.98;;;15.30;41.60;;;;;;5085123;28;20020;-70
2021/01/19 09:45:45;;;;;;;48.05;11.20;;;15.20;41.90;;;;;;5084031;28;20084;-69
2021/01/19 09:48:13;;;;;;;65.55;12.48;;;15.20;42.40;;;;;;5085948;28;20064;-70
2021/01/19 09:50:40;;;;;;;42.05;11.10;;;15.20;42.30;;;;;;5087004;28;20024;-70
2021/01/19 09:53:08;;;;;;;45.97;11.10;;;15.20;42.70;;;;;;5069462;28;20286;-70
2021/01/19 09:55:37;;;;;;;47.83;10.90;;;15.10;42.40;;;;;;5086040;28;20035;-70
2021/01/19 09:58:05;;;;;;;58.30;10.85;;;15.10;42.70;;;;;;5082693;28;20037;-70
2021/01/19 10:00:37;;;;;;;45.45;11.05;;;15.00;42.50;;;;;;5070819;28;20114;-70
2021/01/19 10:03:17;;;;;;;49.17;11.88;;;15.00;42.80;;;;;;5082561;28;20043;-71
2021/01/19 10:06:02;;;;;;;44.85;11.52;;;14.90;43.00;;;;;;5084769;28;20119;-70
2021/01/19 10:08:28;;;;;;;52.53;12.20;;;14.90;43.10;;;;;;5083014;28;20453;-70
2021/01/19 10:10:56;;;;;;;54.15;11.60;;;14.90;43.10;;;;;;5066686;28;20386;-70
2021/01/19 10:13:28;;;;;;;44.67;12.25;;;14.80;43.50;;;;;;5080916;28;20518;-69
2021/01/19 10:16:03;;;;;;;53.75;11.93;;;14.80;43.70;;;;;;5069914;28;20038;-69
2021/01/19 10:18:31;;;;;;;41.92;12.18;;;14.80;44.10;;;;;;5070273;28;20094;-69
2021/01/19 10:20:58;;;;;;;53.47;12.80;;;14.70;44.30;;;;;;5080066;28;20049;-69
2021/01/19 10:23:32;;;;;;;51.28;11.57;;;14.60;44.50;;;;;;5083202;28;20476;-69
2021/01/19 10:26:12;;;;;;;56.10;12.43;;;14.50;44.90;;;;;;5088733;28;20034;-69
2021/01/19 10:28:41;;;;;;;40.88;11.30;;;14.60;45.00;;;;;;5088477;28;20059;-69
2021/01/19 10:31:20;;;;;;;50.22;12.05;;;14.50;45.00;;;;;;5068695;28;20046;-69
2021/01/19 10:34:02;;;;;;;49.03;12.90;;;14.40;44.90;;;;;;5066109;28;20096;-70
2021/01/19 10:36:32;;;;;;;49.40;11.95;;;14.40;45.40;;;;;;5091722;28;20052;-69
2021/01/19 10:39:05;;;;;;;49.55;12.80;;;14.30;45.40;;;;;;5098184;28;20032;-69
2021/01/19 10:41:32;;;;;;;46.05;11.02;;;14.30;45.50;;;;;;5095764;28;20039;-69
2021/01/19 10:43:59;;;;;;;40.80;11.52;;;14.20;45.40;;;;;;5087702;28;20059;-69
2021/01/19 10:46:28;;;;;;;44.72;11.65;;;14.10;45.50;;;;;;5094414;28;20056;-70
2021/01/19 10:49:02;;;;;;;54.78;11.82;;;14.20;45.60;;;;;;5094981;28;20052;-69
2021/01/19 10:51:29;;;;;;;55.78;12.55;;;14.20;45.30;;;;;;5095830;28;20032;-70
2021/01/19 10:54:12;;;;;;;47.72;12.35;;;14.30;45.20;;;;;;5091327;28;20040;-69
2021/01/19 10:56:40;;;;;;;45.65;12.27;;;14.30;45.30;;;;;;5070668;28;20042;-70
2021/01/19 10:59:07;;;;;;;68.63;13.43;;;14.20;45.50;;;;;;5093137;28;20038;-69
2021/01/19 11:01:34;;;;;;;54.75;12.65;;;14.20;45.60;;;;;;5094523;28;20030;-69
2021/01/19 11:04:02;;;;;;;63.30;13.23;;;14.20;45.30;;;;;;5090416;28;20032;-70
2021/01/19 11:06:31;;;;;;;51.60;12.63;;;14.10;45.50;;;;;;5092788;28;20043;-69
2021/01/19 11:08:58;;;;;;;55.03;12.73;;;14.00;46.00;;;;;;5092790;28;20066;-70
2021/01/19 11:11:26;;;;;;;49.35;12.45;;;14.00;46.60;;;;;;5091708;28;20102;-71
2021/01/19 11:13:53;;;;;;;50.33;12.77;;;13.90;46.80;;;;;;5096813;28;20031;-69
2021/01/19 11:16:20;;;;;;;49.05;11.93;;;13.90;46.70;;;;;;5091557;28;20433;-69
2021/01/19 11:18:46;;;;;;;;;;;14.00;46.80;;;;;;5067498;28;20094;-70
2021/01/19 11:21:12;;;;;;;55.40;13.00;;;13.90;46.60;;;;;;5094865;28;20272;-70
2021/01/19 11:23:39;;;;;;;;;;;13.80;46.50;;;;;;5073249;28;20120;-69
2021/01/19 11:26:06;;;;;;;44.83;11.20;;;13.80;47.10;;;;;;5094718;28;19966;-70
2021/01/19 11:28:32;;;;;;;;;;;13.90;47.20;;;;;;5094791;28;20032;-69
2021/01/19 11:30:59;;;;;;;42.63;11.80;;;13.90;46.90;;;;;;5072077;28;20015;-69
2021/01/19 11:33:25;;;;;;;;;;;13.90;46.90;;;;;;5094835;28;20132;-70
2021/01/19 11:35:51;;;;;;;46.08;11.98;;;13.70;47.10;;;;;;5091378;28;19956;-69
2021/01/19 11:38:18;;;;;;;54.63;12.88;;;13.80;46.90;;;;;;5093812;28;20037;-69
2021/01/19 11:40:47;;;;;;;50.28;13.13;;;13.80;47.20;;;;;;5066250;28;20037;-70
2021/01/19 11:43:14;;;;;;;63.50;12.35;;;13.80;47.10;;;;;;5069717;28;20038;-70
2021/01/19 11:45:41;;;;;;;50.30;13.10;;;13.70;47.30;;;;;;5068585;28;20452;-70
2021/01/19 11:48:08;;;;;;;47.15;12.57;;;13.70;47.60;;;;;;5071575;28;20666;-69
2021/01/19 11:50:34;;;;;;;55.63;13.07;;;13.70;47.70;;;;;;5091708;28;20036;-70
2021/01/19 11:53:01;;;;;;;;;;;13.70;47.60;;;;;;5070213;28;20035;-70
2021/01/19 11:55:27;;;;;;;52.35;12.70;;;13.70;47.20;;;;;;5091397;28;19998;-70
2021/01/19 11:57:53;;;;;;;;;;;13.70;47.20;;;;;;5077068;28;20534;-69
2021/01/19 12:00:20;;;;;;;57.10;13.13;;;13.60;47.40;;;;;;5086911;28;19927;-70
2021/01/19 12:02:50;;;;;;;56.83;12.63;;;13.60;47.50;;;;;;5069975;28;20123;-70
2021/01/19 12:05:16;;;;;;;54.38;12.90;;;13.50;47.90;;;;;;5092345;28;20039;-70
2021/01/19 12:07:42;;;;;;;;;;;13.50;48.30;;;;;;5091500;28;20400;-70
2021/01/19 12:10:09;;;;;;;59.30;14.02;;;13.40;48.00;;;;;;5093312;28;20277;-70
2021/01/19 12:12:36;;;;;;;44.53;13.23;;;13.40;47.90;;;;;;5071523;28;20037;-70
2021/01/19 12:15:04;;;;;;;62.00;13.88;;;13.30;48.10;;;;;;5066160;28;20481;-70
2021/01/19 12:17:31;;;;;;;54.45;13.93;;;13.20;48.50;;;;;;5092285;28;20064;-70
2021/01/19 12:19:57;;;;;;;;;;;13.20;48.10;;;;;;5093830;28;20044;-69
2021/01/19 12:22:23;;;;;;;51.65;13.82;;;13.10;47.70;;;;;;5090442;28;19944;-71
2021/01/19 12:24:49;;;;;;;;;;;13.10;47.40;;;;;;5095900;28;20043;-70
2021/01/19 12:27:16;;;;;;;86.78;18.17;;;13.10;46.70;;;;;;5092863;28;19936;-69
2021/01/19 12:29:43;;;;;;;;;;;13.20;45.90;;;;;;5069340;28;20119;-70
2021/01/19 12:32:11;;;;;;;83.88;18.52;;;13.30;45.80;;;;;;5069261;28;20219;-70
2021/01/19 12:34:38;;;;;;;89.50;18.85;;;13.30;45.10;;;;;;5073045;28;20110;-70
2021/01/19 12:37:04;;;;;;;78.00;17.02;;;13.40;44.00;;;;;;5100753;28;20032;-70
2021/01/19 12:39:31;;;;;;;68.40;18.17;;;13.40;44.50;;;;;;5108015;28;20073;-71
2021/01/19 12:41:58;;;;;;;77.85;18.65;;;13.40;44.10;;;;;;5103627;28;20036;-70
2021/01/19 12:44:25;;;;;;;78.70;19.58;;;13.40;44.00;;;;;;5108137;28;20039;-70
2021/01/19 12:46:57;;;;;;;82.93;18.35;;;13.30;43.40;;;;;;5098076;28;20043;-70